Aérodrome :
LOGIN :

S'inscrire | Disclaimer

   EN    FR    IT 

 










Légende :    VFR   VFR Marginal   IFR   IFR Intensif   IFR Très Intensif
Visi : 
Plafond : 
>= 8 km
>= 3000ft
5 à 8 km
1000 à 3000 ft
1500m à 5 km
500 à 1000 ft
800 à 1500m
200 à 500 ft
< 800m
< 200 ft
Symboles :   Orages  Brouillard  Fortes neiges  Fortes précipitations  Vent > 20 kt
SIGMETs :   Divers  Orages  Givrage  Turbulence  Onde Orograph.  Cendres Volcan.






- Altitude de l'aérodrome : 126 ft
- Code IATA : TIA


LATI - Rinas Mother Teresa Arpt - Tirana

DERNIER METAR :
  • 231120Z 35004KT 270V050 CAVOK 15/M00 Q1027 NOSIG

METARs EXPIRÉS :
  • 231050Z 02005KT 330V050 CAVOK 14/M02 Q1027 NOSIG
  • 231020Z VRB03KT CAVOK 14/M03 Q1028 NOSIG
  • 230950Z 29001KT CAVOK 14/M03 Q1028 NOSIG
  • 230920Z VRB01KT CAVOK 13/M03 Q1028 NOSIG
  • 230850Z 15004KT 120V190 CAVOK 10/M01 Q1028 NOSIG

TAF TAF LATI
Valide du 23 à 12h jusqu'au 24 à 12h UTC


231100Z 2312/2412 34012KT CAVOK TX16/2412Z TN01/2406Z
BECMG 2317/2319 VRB04KT



MET'MAP, la Météo Aéronautique d'un coup d'oeil ! - Copyright ORBIFLY Décembre 2007 - Disclaimer

ORBIFLY MET'MAP TEAM :

Programmation & Développement : Alexandra Zaïnal
Sur une idée originale de : Baudouin d'Aumeries
Assistance à la programmation : Marc-Olivier Méhu
Soutien technique & logistique : Manuel Goepfert

Contact : metmap@orbifly.com




SOURCES & CREDITS :

   NOAA